Time;durP1;ratioP1;P1;durP2;ratioP2;P2;SDS_P1;SDS_P2;PMS_P1;PMS_P2;Temp;Humidity;BMP_temperature;BMP_pressure;BME280_temperature;BME280_humidity;BME280_pressure;Samples;Min_cycle;Max_cycle;Signal;HPM_P1;HPM_P2
2021/10/14 00:00:55;;;;;;;10.55;6.82;;;7.20;94.20;;;;;;4895758;29;20032;-69
2021/10/14 00:03:21;;;;;;;10.95;6.43;;;7.10;94.20;;;;;;4888632;29;20033;-68
2021/10/14 00:05:47;;;;;;;10.70;6.47;;;7.10;94.10;;;;;;4889588;29;20028;-68
2021/10/14 00:08:13;;;;;;;9.68;6.40;;;7.10;94.20;;;;;;4890121;29;20405;-68
2021/10/14 00:10:39;;;;;;;11.30;6.75;;;7.10;94.20;;;;;;4894095;29;20128;-68
2021/10/14 00:13:05;;;;;;;10.02;6.45;;;7.10;94.20;;;;;;4892133;29;20636;-69
2021/10/14 00:15:30;;;;;;;8.60;6.35;;;7.10;94.20;;;;;;4908789;29;20059;-69
2021/10/14 00:17:58;;;;;;;11.02;6.85;;;7.00;94.20;;;;;;4892728;29;20052;-68
2021/10/14 00:20:24;;;;;;;10.50;6.40;;;7.10;94.30;;;;;;4891912;29;20037;-68
2021/10/14 00:22:50;;;;;;;10.65;6.75;;;7.10;94.30;;;;;;4891852;29;20122;-68
2021/10/14 00:25:18;;;;;;;11.18;6.28;;;7.00;94.20;;;;;;4890152;29;20123;-69
2021/10/14 00:27:43;;;;;;;9.73;6.68;;;7.00;94.30;;;;;;4882881;29;20493;-68
2021/10/14 00:30:09;;;;;;;12.27;7.03;;;7.00;94.20;;;;;;4878992;29;20061;-68
2021/10/14 00:32:35;;;;;;;13.82;6.93;;;7.00;94.20;;;;;;4889370;29;20450;-69
2021/10/14 00:35:00;;;;;;;12.93;7.57;;;6.90;94.10;;;;;;4887734;29;20036;-69
2021/10/14 00:37:26;;;;;;;14.07;7.80;;;6.90;94.10;;;;;;4894904;29;20112;-68
2021/10/14 00:39:52;;;;;;;13.32;7.70;;;6.80;94.10;;;;;;4888662;29;20037;-69
2021/10/14 00:42:17;;;;;;;12.13;7.63;;;6.80;94.10;;;;;;4893283;29;20043;-68
2021/10/14 00:44:44;;;;;;;12.88;7.80;;;6.70;94.20;;;;;;4880283;29;20037;-69
2021/10/14 00:47:10;;;;;;;12.80;8.20;;;6.70;94.30;;;;;;4890874;29;20230;-68
2021/10/14 00:49:35;;;;;;;12.50;7.65;;;6.60;94.20;;;;;;4891874;29;20194;-69
2021/10/14 00:52:01;;;;;;;12.05;7.57;;;6.60;94.20;;;;;;4894325;29;20033;-68
2021/10/14 00:54:26;;;;;;;12.35;7.63;;;6.60;94.30;;;;;;4878157;29;20040;-69
2021/10/14 00:56:53;;;;;;;12.60;7.43;;;6.60;94.40;;;;;;4895314;29;20107;-68
2021/10/14 00:59:20;;;;;;;13.85;7.63;;;6.60;94.50;;;;;;4895577;29;20116;-68
2021/10/14 01:01:46;;;;;;;15.48;8.45;;;6.60;94.40;;;;;;4887540;29;20029;-69
2021/10/14 01:04:11;;;;;;;13.05;8.27;;;6.60;94.70;;;;;;4890328;29;20043;-68
2021/10/14 01:06:37;;;;;;;13.32;8.45;;;6.50;94.50;;;;;;4884802;29;20115;-69
2021/10/14 01:09:02;;;;;;;11.93;8.35;;;6.60;94.50;;;;;;4885315;29;20028;-68
2021/10/14 01:11:28;;;;;;;13.02;8.82;;;6.50;94.40;;;;;;4888494;29;20111;-69
2021/10/14 01:13:54;;;;;;;15.38;8.98;;;6.50;94.50;;;;;;4891171;29;20048;-68
2021/10/14 01:16:19;;;;;;;18.98;10.02;;;6.50;94.60;;;;;;4888266;29;20125;-68
2021/10/14 01:18:45;;;;;;;15.85;8.50;;;6.50;94.50;;;;;;4891254;29;20025;-69
2021/10/14 01:21:11;;;;;;;14.57;9.32;;;6.50;94.50;;;;;;4891296;29;20031;-69
2021/10/14 01:23:38;;;;;;;16.13;9.73;;;6.40;94.50;;;;;;4897874;29;20096;-69
2021/10/14 01:26:04;;;;;;;18.13;10.07;;;6.40;94.50;;;;;;4891646;29;20036;-69
2021/10/14 01:28:30;;;;;;;17.77;10.25;;;6.30;94.80;;;;;;4888177;29;20116;-68
2021/10/14 01:30:57;;;;;;;15.27;9.48;;;6.30;94.60;;;;;;4882727;29;20119;-68
2021/10/14 01:33:23;;;;;;;17.35;9.88;;;6.30;94.80;;;;;;4892360;29;20028;-68
2021/10/14 01:35:49;;;;;;;16.15;9.40;;;6.30;94.80;;;;;;4883905;29;20036;-68
2021/10/14 01:38:14;;;;;;;17.33;10.52;;;6.30;94.80;;;;;;4876127;29;20025;-68
2021/10/14 01:40:40;;;;;;;18.15;10.38;;;6.40;94.90;;;;;;4890309;29;20080;-68
2021/10/14 01:43:12;;;;;;;16.92;10.32;;;6.40;94.80;;;;;;4893569;29;20028;-68
2021/10/14 01:45:37;;;;;;;16.92;10.15;;;6.40;94.90;;;;;;4892299;29;20114;-68
2021/10/14 01:48:04;;;;;;;16.42;9.57;;;6.40;94.80;;;;;;4876995;29;20342;-68
2021/10/14 01:50:30;;;;;;;17.90;10.00;;;6.30;94.80;;;;;;4904994;29;20028;-68
2021/10/14 01:52:55;;;;;;;17.42;9.82;;;6.30;94.80;;;;;;4886936;29;20414;-69
2021/10/14 01:55:21;;;;;;;16.77;9.45;;;6.30;94.80;;;;;;4891675;29;20028;-68
2021/10/14 01:57:46;;;;;;;19.77;10.75;;;6.30;94.80;;;;;;4889475;29;20042;-68
2021/10/14 02:00:12;;;;;;;16.98;10.05;;;6.30;94.80;;;;;;4891297;29;20119;-69
2021/10/14 02:02:38;;;;;;;19.98;11.07;;;6.30;94.80;;;;;;4885861;29;20385;-69
2021/10/14 02:05:05;;;;;;;17.38;10.32;;;6.30;94.90;;;;;;4897310;29;20040;-69
2021/10/14 02:07:31;;;;;;;16.67;9.60;;;6.30;94.90;;;;;;4890755;29;20481;-68
2021/10/14 02:09:56;;;;;;;20.25;11.43;;;6.30;94.90;;;;;;4897151;29;20088;-68
2021/10/14 02:12:22;;;;;;;16.85;10.32;;;6.30;95.00;;;;;;4897367;29;20044;-68
2021/10/14 02:14:47;;;;;;;18.60;10.23;;;6.40;95.00;;;;;;4897103;29;20111;-69
2021/10/14 02:17:13;;;;;;;16.58;10.27;;;6.30;95.00;;;;;;4884703;29;20391;-68
2021/10/14 02:19:39;;;;;;;20.20;10.25;;;6.30;94.90;;;;;;4888902;29;20450;-68
2021/10/14 02:22:04;;;;;;;15.43;9.73;;;6.30;94.90;;;;;;4897871;29;20036;-69
2021/10/14 02:24:30;;;;;;;20.58;10.40;;;6.30;94.90;;;;;;4894745;29;20025;-68
2021/10/14 02:26:56;;;;;;;17.15;10.57;;;6.30;94.90;;;;;;4899092;29;20044;-68
2021/10/14 02:29:21;;;;;;;14.45;9.43;;;6.30;94.90;;;;;;4894985;29;20028;-68
2021/10/14 02:31:47;;;;;;;15.10;9.88;;;6.30;95.00;;;;;;4891479;29;20065;-69
2021/10/14 02:34:12;;;;;;;17.58;10.15;;;6.30;95.00;;;;;;4897490;29;20035;-69
2021/10/14 02:36:38;;;;;;;16.50;10.00;;;6.30;95.00;;;;;;4897625;29;20135;-69
2021/10/14 02:39:04;;;;;;;17.30;10.05;;;6.30;94.90;;;;;;4899603;29;20075;-68
2021/10/14 02:41:30;;;;;;;15.95;9.77;;;6.20;94.90;;;;;;4902491;29;20021;-68
2021/10/14 02:43:56;;;;;;;19.23;9.90;;;6.20;95.00;;;;;;4896383;29;20058;-68
2021/10/14 02:46:21;;;;;;;18.42;10.50;;;6.20;94.90;;;;;;4909013;29;20028;-68
2021/10/14 02:48:47;;;;;;;16.48;10.65;;;6.20;94.90;;;;;;4892854;29;20025;-68
2021/10/14 02:51:12;;;;;;;19.45;11.00;;;6.20;95.00;;;;;;4889323;29;20024;-68
2021/10/14 02:53:38;;;;;;;18.05;10.88;;;6.10;95.00;;;;;;4895350;29;20120;-69
2021/10/14 02:56:04;;;;;;;17.58;10.68;;;6.10;95.10;;;;;;4898794;29;20492;-68
2021/10/14 02:58:29;;;;;;;16.08;10.57;;;6.20;95.20;;;;;;4895068;29;20474;-68
2021/10/14 03:00:55;;;;;;;18.48;10.38;;;6.20;95.20;;;;;;4895081;29;20127;-68
2021/10/14 03:03:20;;;;;;;19.20;10.70;;;6.20;95.20;;;;;;4893829;29;20045;-69
2021/10/14 03:05:46;;;;;;;15.75;9.90;;;6.20;95.20;;;;;;4883063;29;20027;-68
2021/10/14 03:08:11;;;;;;;17.17;9.82;;;6.20;95.20;;;;;;4896985;29;20112;-68
2021/10/14 03:10:37;;;;;;;16.10;9.98;;;6.20;95.10;;;;;;4894928;29;20040;-68
2021/10/14 03:13:02;;;;;;;19.17;10.50;;;6.20;95.20;;;;;;4887188;29;20048;-69
2021/10/14 03:15:28;;;;;;;18.15;10.80;;;6.20;95.10;;;;;;4894558;29;20024;-69
2021/10/14 03:17:54;;;;;;;17.38;10.52;;;6.10;95.20;;;;;;4889750;29;20112;-68
2021/10/14 03:20:19;;;;;;;17.23;10.80;;;6.10;95.20;;;;;;4878841;29;20029;-68
2021/10/14 03:22:45;;;;;;;18.23;10.38;;;6.10;95.20;;;;;;4890790;29;20111;-69
2021/10/14 03:25:10;;;;;;;19.05;10.85;;;6.10;95.20;;;;;;4895875;29;20150;-68
2021/10/14 03:27:36;;;;;;;17.65;10.75;;;6.10;95.20;;;;;;4887058;29;20116;-68
2021/10/14 03:30:02;;;;;;;16.52;10.02;;;6.10;95.10;;;;;;4900009;29;20083;-68
2021/10/14 03:32:27;;;;;;;15.45;9.65;;;6.10;95.10;;;;;;4887698;29;20446;-68
2021/10/14 03:34:53;;;;;;;17.85;11.05;;;6.10;95.30;;;;;;4896590;29;20370;-68
2021/10/14 03:37:18;;;;;;;17.40;9.93;;;6.10;95.30;;;;;;4893409;29;20108;-68
2021/10/14 03:39:44;;;;;;;18.60;11.20;;;6.10;95.40;;;;;;4904685;29;20028;-68
2021/10/14 03:42:10;;;;;;;20.75;10.88;;;6.10;95.40;;;;;;4893594;29;20028;-69
2021/10/14 03:44:35;;;;;;;16.70;10.57;;;6.10;95.30;;;;;;4895429;29;20033;-68
2021/10/14 03:47:01;;;;;;;15.80;9.88;;;6.10;95.30;;;;;;4889151;29;20107;-68
2021/10/14 03:49:26;;;;;;;16.92;10.30;;;6.10;95.30;;;;;;4885623;29;20025;-68
2021/10/14 03:51:52;;;;;;;18.75;10.20;;;6.10;95.30;;;;;;4880024;29;20123;-68
2021/10/14 03:54:17;;;;;;;16.85;10.27;;;6.10;95.30;;;;;;4911384;29;20441;-68
2021/10/14 03:56:43;;;;;;;14.82;9.65;;;6.00;95.30;;;;;;4886908;29;20032;-68
2021/10/14 03:59:09;;;;;;;14.75;9.65;;;6.10;95.40;;;;;;4883762;29;20080;-68
2021/10/14 04:01:34;;;;;;;13.45;9.48;;;6.10;95.40;;;;;;4886713;29;20028;-68
2021/10/14 04:04:00;;;;;;;15.70;10.10;;;6.00;95.40;;;;;;4896762;29;20039;-68
2021/10/14 04:06:25;;;;;;;17.30;10.60;;;6.10;95.40;;;;;;4890550;29;20033;-68
2021/10/14 04:08:51;;;;;;;14.68;9.90;;;6.10;95.40;;;;;;4893102;29;20390;-68
2021/10/14 04:11:17;;;;;;;15.85;9.18;;;6.10;95.50;;;;;;4878682;29;20029;-68
2021/10/14 04:13:42;;;;;;;15.98;9.50;;;6.10;95.60;;;;;;4880891;29;20041;-68
2021/10/14 04:16:08;;;;;;;15.88;9.82;;;6.10;95.60;;;;;;4900182;29;20024;-68
2021/10/14 04:18:36;;;;;;;16.27;9.98;;;6.20;95.60;;;;;;4895171;29;20830;-68
2021/10/14 04:21:05;;;;;;;13.82;9.05;;;6.20;95.60;;;;;;4895279;29;20020;-68
2021/10/14 04:23:31;;;;;;;17.40;9.75;;;6.20;95.60;;;;;;4889316;23;20092;-66
2021/10/14 04:25:56;;;;;;;16.77;9.35;;;6.20;95.50;;;;;;4871989;29;20032;-65
2021/10/14 04:28:22;;;;;;;12.52;8.60;;;6.30;95.50;;;;;;4876846;29;20029;-66
2021/10/14 04:30:48;;;;;;;16.88;9.40;;;6.30;95.60;;;;;;4871301;29;20085;-66
2021/10/14 04:33:15;;;;;;;15.65;9.60;;;6.20;95.60;;;;;;4874512;29;20056;-67
2021/10/14 04:35:40;;;;;;;15.05;10.20;;;6.30;95.60;;;;;;4875647;29;20065;-67
2021/10/14 04:38:07;;;;;;;17.10;10.18;;;6.30;95.60;;;;;;4874743;29;20032;-67
2021/10/14 04:40:32;;;;;;;14.68;9.15;;;6.30;95.60;;;;;;4869068;29;20025;-67
2021/10/14 04:42:58;;;;;;;14.23;9.43;;;6.30;95.50;;;;;;4872580;29;20040;-63
2021/10/14 04:45:24;;;;;;;15.52;9.07;;;6.30;95.50;;;;;;4866084;29;20105;-67
2021/10/14 04:47:49;;;;;;;13.63;8.98;;;6.30;95.50;;;;;;4876637;29;20072;-64
2021/10/14 04:50:15;;;;;;;16.83;9.15;;;6.30;95.60;;;;;;4874046;29;20036;-67
2021/10/14 04:52:40;;;;;;;13.57;9.00;;;6.30;95.50;;;;;;4875307;29;20112;-64
2021/10/14 04:55:07;;;;;;;13.43;9.30;;;6.30;95.50;;;;;;4875358;29;20029;-63
2021/10/14 04:57:33;;;;;;;15.98;8.80;;;6.30;95.50;;;;;;4876935;29;20029;-64
2021/10/14 04:59:58;;;;;;;13.93;8.65;;;6.30;95.50;;;;;;4874029;29;20260;-64
2021/10/14 05:02:24;;;;;;;16.10;8.98;;;6.30;95.50;;;;;;4873826;29;20040;-67
2021/10/14 05:04:50;;;;;;;13.20;8.95;;;6.20;95.50;;;;;;4872738;29;20094;-66
2021/10/14 05:07:15;;;;;;;15.90;8.82;;;6.30;95.50;;;;;;4874194;29;20049;-65
2021/10/14 05:09:41;;;;;;;15.35;8.52;;;6.30;95.50;;;;;;4874718;29;20120;-65
2021/10/14 05:12:07;;;;;;;15.07;9.10;;;6.30;95.50;;;;;;4875170;29;20504;-66
2021/10/14 05:14:32;;;;;;;14.52;9.05;;;6.30;95.60;;;;;;4875623;29;20112;-66
2021/10/14 05:16:58;;;;;;;13.13;8.85;;;6.30;95.60;;;;;;4875998;29;20032;-66
2021/10/14 05:19:23;;;;;;;14.95;9.18;;;6.30;95.60;;;;;;4875034;29;20021;-65
2021/10/14 05:21:50;;;;;;;14.50;8.95;;;6.30;95.50;;;;;;4876853;29;20025;-64
2021/10/14 05:24:16;;;;;;;14.15;9.05;;;6.30;95.50;;;;;;4871607;29;20025;-65
2021/10/14 05:26:41;;;;;;;17.80;8.55;;;6.40;95.60;;;;;;4875262;29;20040;-65
2021/10/14 05:29:08;;;;;;;14.75;9.52;;;6.30;95.60;;;;;;4877260;29;20037;-63
2021/10/14 05:31:34;;;;;;;15.55;9.05;;;6.30;95.60;;;;;;4877355;29;20032;-65
2021/10/14 05:33:59;;;;;;;25.50;15.77;;;6.40;95.60;;;;;;4875829;29;20494;-65
2021/10/14 05:36:25;;;;;;;16.63;9.48;;;6.40;95.60;;;;;;4869016;29;20085;-68
2021/10/14 05:38:51;;;;;;;14.35;8.70;;;6.40;95.60;;;;;;4865311;29;20761;-66
2021/10/14 05:41:17;;;;;;;14.73;8.40;;;6.40;95.60;;;;;;4875204;29;20035;-69
2021/10/14 05:43:42;;;;;;;13.35;9.00;;;6.40;95.60;;;;;;4873450;29;20051;-66
2021/10/14 05:46:09;;;;;;;15.23;9.82;;;6.40;95.60;;;;;;4873346;29;20096;-65
2021/10/14 05:48:34;;;;;;;19.35;10.10;;;6.40;95.70;;;;;;4875627;29;20405;-66
2021/10/14 05:51:02;;;;;;;16.27;8.85;;;6.40;95.60;;;;;;4876483;29;20037;-66
2021/10/14 05:53:27;;;;;;;13.45;8.52;;;6.40;95.60;;;;;;4873568;29;20052;-66
2021/10/14 05:55:53;;;;;;;11.43;8.10;;;6.40;95.60;;;;;;4873193;29;20029;-66
2021/10/14 05:58:18;;;;;;;13.77;8.55;;;6.40;95.50;;;;;;4876360;29;20081;-68
2021/10/14 06:00:44;;;;;;;14.15;9.43;;;6.40;95.60;;;;;;4872649;29;20034;-64
2021/10/14 06:03:09;;;;;;;13.43;8.43;;;6.50;95.60;;;;;;4862376;29;20061;-66
2021/10/14 06:05:35;;;;;;;11.60;7.93;;;6.40;95.60;;;;;;4874132;29;20112;-66
2021/10/14 06:08:01;;;;;;;14.57;8.55;;;6.40;95.50;;;;;;4874758;29;20393;-65
2021/10/14 06:10:26;;;;;;;13.15;8.43;;;6.40;95.60;;;;;;4862171;29;20447;-66
2021/10/14 06:12:52;;;;;;;13.98;8.05;;;6.40;95.50;;;;;;4856695;29;20243;-65
2021/10/14 06:15:17;;;;;;;11.45;7.57;;;6.40;95.60;;;;;;4873054;29;20048;-65
2021/10/14 06:17:44;;;;;;;12.00;7.57;;;6.40;95.60;;;;;;4873088;29;20025;-65
2021/10/14 06:20:10;;;;;;;13.13;7.35;;;6.50;95.70;;;;;;4876565;29;20370;-66
2021/10/14 06:22:35;;;;;;;13.88;8.20;;;6.40;95.60;;;;;;4874863;29;20088;-65
2021/10/14 06:25:01;;;;;;;14.95;8.07;;;6.50;95.70;;;;;;4876258;29;20112;-65
2021/10/14 06:27:27;;;;;;;15.65;8.32;;;6.50;95.60;;;;;;4874893;29;20386;-63
2021/10/14 06:29:54;;;;;;;11.95;7.63;;;6.50;95.60;;;;;;4876354;29;20098;-66
2021/10/14 06:32:20;;;;;;;10.45;7.78;;;6.50;95.60;;;;;;4875447;29;20036;-64
2021/10/14 06:34:46;;;;;;;15.57;7.50;;;6.50;95.60;;;;;;4874948;29;20024;-67
2021/10/14 06:37:11;;;;;;;14.25;7.43;;;6.50;95.60;;;;;;4875210;29;20450;-65
2021/10/14 06:39:37;;;;;;;11.15;7.25;;;6.60;95.60;;;;;;4875636;29;20021;-67
2021/10/14 06:42:03;;;;;;;13.38;7.68;;;6.60;95.60;;;;;;4875553;29;20108;-66
2021/10/14 06:44:29;;;;;;;12.18;7.20;;;6.60;95.60;;;;;;4873288;29;20053;-67
2021/10/14 06:46:55;;;;;;;10.75;6.93;;;6.60;95.70;;;;;;4875395;29;20036;-68
2021/10/14 06:49:20;;;;;;;10.90;6.95;;;6.70;95.70;;;;;;4876620;29;20517;-68
2021/10/14 06:51:46;;;;;;;13.30;7.05;;;6.70;95.70;;;;;;4872899;29;20037;-67
2021/10/14 06:54:12;;;;;;;12.35;7.38;;;6.70;95.70;;;;;;4865532;29;20031;-67
2021/10/14 06:56:38;;;;;;;12.00;7.25;;;6.80;95.70;;;;;;4878171;29;20063;-67
2021/10/14 06:59:03;;;;;;;11.45;7.32;;;6.80;95.70;;;;;;4875321;29;20056;-66
2021/10/14 07:01:29;;;;;;;12.35;7.05;;;6.80;95.60;;;;;;4871641;29;20037;-67
2021/10/14 07:03:54;;;;;;;10.02;6.57;;;6.80;95.60;;;;;;4874540;29;20041;-68
2021/10/14 07:06:20;;;;;;;10.30;6.70;;;6.80;95.60;;;;;;4866723;29;20104;-67
2021/10/14 07:08:46;;;;;;;11.30;6.53;;;6.90;95.90;;;;;;4875143;29;20048;-67
2021/10/14 07:11:11;;;;;;;9.13;6.18;;;6.90;95.90;;;;;;4867261;29;20506;-68
2021/10/14 07:13:38;;;;;;;11.13;6.35;;;6.90;95.60;;;;;;4877947;29;20033;-65
2021/10/14 07:16:04;;;;;;;14.63;6.28;;;7.00;95.70;;;;;;4879073;29;20025;-65
2021/10/14 07:18:29;;;;;;;15.48;7.05;;;7.00;95.70;;;;;;4877884;29;20033;-66
2021/10/14 07:20:55;;;;;;;10.38;6.35;;;7.00;95.60;;;;;;4878040;29;20486;-66
2021/10/14 07:23:21;;;;;;;10.70;6.28;;;7.10;95.60;;;;;;4875858;29;20422;-68
2021/10/14 07:25:47;;;;;;;8.20;5.75;;;7.10;95.50;;;;;;4875426;29;20382;-65
2021/10/14 07:28:13;;;;;;;12.23;6.80;;;7.10;95.50;;;;;;4872456;29;20044;-66
2021/10/14 07:30:40;;;;;;;9.35;6.65;;;7.10;95.60;;;;;;4877477;29;20041;-66
2021/10/14 07:33:05;;;;;;;11.38;6.72;;;7.20;95.60;;;;;;4876223;29;20171;-66
2021/10/14 07:35:37;;;;;;;9.18;6.38;;;7.20;95.60;;;;;;4877611;29;20044;-67
2021/10/14 07:38:07;;;;;;;10.02;6.50;;;7.30;95.60;;;;;;4878256;29;20033;-66
2021/10/14 07:40:34;;;;;;;11.18;6.20;;;7.30;95.60;;;;;;4876278;29;20081;-67
2021/10/14 07:43:03;;;;;;;8.65;5.93;;;7.40;95.50;;;;;;4866494;29;20057;-66
2021/10/14 07:45:29;;;;;;;9.55;5.85;;;7.30;95.50;;;;;;4875192;29;20478;-66
2021/10/14 07:47:54;;;;;;;9.93;5.68;;;7.30;95.40;;;;;;4877282;29;20045;-66
2021/10/14 07:50:20;;;;;;;9.57;5.82;;;7.40;95.50;;;;;;4876404;29;20045;-67
2021/10/14 07:52:45;;;;;;;11.18;5.60;;;7.40;95.40;;;;;;4874087;29;20033;-67
2021/10/14 07:55:11;;;;;;;8.73;5.68;;;7.40;95.50;;;;;;4876770;29;20125;-65
2021/10/14 07:57:37;;;;;;;9.13;5.53;;;7.40;95.40;;;;;;4875852;29;20026;-66
2021/10/14 08:00:06;;;;;;;11.05;6.20;;;7.40;95.40;;;;;;4876849;29;20088;-65
2021/10/14 08:02:31;;;;;;;9.25;5.63;;;7.50;95.40;;;;;;4873248;29;20416;-66
2021/10/14 08:04:57;;;;;;;12.27;5.45;;;7.50;95.30;;;;;;4876678;29;20116;-65
2021/10/14 08:07:22;;;;;;;8.38;5.53;;;7.50;95.40;;;;;;4876491;29;20108;-67
2021/10/14 08:09:48;;;;;;;8.38;5.07;;;7.60;95.40;;;;;;4877805;29;20229;-67
2021/10/14 08:12:14;;;;;;;8.07;5.53;;;7.60;95.40;;;;;;4877316;29;20033;-66
2021/10/14 08:14:40;;;;;;;10.95;5.90;;;7.60;95.30;;;;;;4876434;29;20459;-66
2021/10/14 08:17:05;;;;;;;8.60;5.30;;;7.60;95.30;;;;;;4877173;29;20021;-67
2021/10/14 08:19:31;;;;;;;7.90;5.38;;;7.70;95.40;;;;;;4875074;29;20505;-67
2021/10/14 08:21:56;;;;;;;8.20;5.43;;;7.80;95.30;;;;;;4875590;29;20087;-66
2021/10/14 08:24:22;;;;;;;7.50;5.07;;;7.80;95.40;;;;;;4869471;29;20538;-66
2021/10/14 08:26:47;;;;;;;8.00;5.53;;;7.90;95.60;;;;;;4869340;29;20029;-66
2021/10/14 08:29:13;;;;;;;10.82;5.20;;;7.90;95.30;;;;;;4874580;29;20025;-67
2021/10/14 08:31:39;;;;;;;6.93;5.00;;;8.00;95.30;;;;;;4877995;29;20033;-67
2021/10/14 08:34:04;;;;;;;8.60;5.03;;;8.00;95.30;;;;;;4875845;29;20061;-67
2021/10/14 08:36:30;;;;;;;11.48;4.93;;;8.00;95.30;;;;;;4877734;29;20041;-66
2021/10/14 08:38:55;;;;;;;6.80;4.72;;;8.10;95.20;;;;;;4876804;29;20108;-66
2021/10/14 08:41:21;;;;;;;8.45;4.72;;;8.10;95.20;;;;;;4876949;29;20037;-66
2021/10/14 08:43:49;;;;;;;7.68;4.72;;;8.10;95.10;;;;;;4875009;29;20033;-66
2021/10/14 08:46:15;;;;;;;9.07;4.88;;;8.20;95.20;;;;;;4877013;29;20037;-66
2021/10/14 08:48:42;;;;;;;4.82;4.13;;;8.30;95.10;;;;;;4877170;29;20550;-66
2021/10/14 08:51:08;;;;;;;6.55;4.35;;;8.30;95.10;;;;;;4876654;29;20093;-66
2021/10/14 08:53:33;;;;;;;9.38;4.40;;;8.30;95.10;;;;;;4866320;29;20033;-66
2021/10/14 08:55:59;;;;;;;7.70;4.32;;;8.40;95.10;;;;;;4873324;29;20395;-66
2021/10/14 08:58:24;;;;;;;7.82;4.88;;;8.40;95.10;;;;;;4873989;29;20039;-66
2021/10/14 09:01:03;;;;;;;8.07;4.60;;;8.50;95.10;;;;;;4878013;29;20102;-70
2021/10/14 09:03:30;;;;;;;5.55;4.18;;;8.60;95.10;;;;;;4874128;29;20502;-67
2021/10/14 09:05:56;;;;;;;5.35;3.97;;;8.60;95.00;;;;;;4877327;29;20105;-67
2021/10/14 09:08:42;;;;;;;6.78;4.07;;;8.60;95.00;;;;;;4876105;29;20067;-67
2021/10/14 09:11:10;;;;;;;5.57;4.18;;;8.70;95.00;;;;;;4874429;29;20049;-65
2021/10/14 09:13:37;;;;;;;7.97;4.15;;;8.80;95.00;;;;;;4867611;29;20093;-67
2021/10/14 09:16:33;;;;;;;5.03;4.00;;;8.80;94.90;;;;;;4858664;29;20025;-67
2021/10/14 09:19:22;;;;;;;5.93;4.20;;;8.90;95.00;;;;;;4874707;29;20052;-67
2021/10/14 09:21:50;;;;;;;5.32;3.90;;;8.90;95.10;;;;;;4876259;29;20036;-66
2021/10/14 09:24:31;;;;;;;7.65;4.10;;;9.00;94.80;;;;;;4871969;29;20189;-67
2021/10/14 09:26:58;;;;;;;5.60;3.97;;;9.00;94.90;;;;;;4876150;29;20035;-67
2021/10/14 09:29:27;;;;;;;9.45;4.63;;;9.00;94.90;;;;;;4875183;29;20168;-67
2021/10/14 09:32:00;;;;;;;7.72;5.00;;;9.10;94.90;;;;;;4876039;29;20033;-67
2021/10/14 09:34:49;;;;;;;7.05;4.38;;;9.10;94.80;;;;;;4874150;29;20024;-66
2021/10/14 09:37:15;;;;;;;7.05;4.80;;;9.10;94.90;;;;;;4876950;29;20033;-67
2021/10/14 09:40:07;;;;;;;6.60;4.80;;;9.10;94.90;;;;;;4874541;29;20029;-67
2021/10/14 09:45:27;;;;;;;7.75;4.82;;;9.20;94.80;;;;;;4876786;29;20029;-67
2021/10/14 09:48:13;;;;;;;5.50;4.27;;;9.20;94.80;;;;;;4875699;29;20022;-67
2021/10/14 09:50:44;;;;;;;5.38;4.35;;;9.20;94.90;;;;;;4869964;29;20042;-68
2021/10/14 09:53:15;;;;;;;6.97;4.50;;;9.30;94.90;;;;;;4870287;29;20045;-68
2021/10/14 09:55:42;;;;;;;6.93;2.80;;;9.30;94.80;;;;;;4875043;29;20033;-67
2021/10/14 09:58:08;;;;;;;6.90;3.88;;;9.30;94.70;;;;;;4876699;29;20124;-68
2021/10/14 10:00:36;;;;;;;6.15;4.03;;;9.30;94.70;;;;;;4876278;29;20036;-67
2021/10/14 10:03:04;;;;;;;5.40;3.67;;;9.30;94.70;;;;;;4875372;29;20029;-68
2021/10/14 10:05:30;;;;;;;11.00;3.78;;;9.30;94.60;;;;;;4872467;29;20034;-68
2021/10/14 10:07:59;;;;;;;4.85;3.33;;;9.30;94.50;;;;;;4872905;29;20045;-68
2021/10/14 10:10:27;;;;;;;9.38;2.95;;;9.40;94.50;;;;;;4865665;29;20055;-67
2021/10/14 10:13:04;;;;;;;4.53;3.20;;;9.40;94.40;;;;;;4875234;29;20047;-67
2021/10/14 10:15:36;;;;;;;3.55;2.50;;;9.40;94.40;;;;;;4868776;29;20032;-68
2021/10/14 10:18:01;;;;;;;4.17;2.63;;;9.40;94.30;;;;;;4874185;29;20093;-67
2021/10/14 10:20:39;;;;;;;7.22;2.90;;;9.50;94.20;;;;;;4869496;29;20310;-67
2021/10/14 10:23:05;;;;;;;8.50;2.63;;;9.50;94.10;;;;;;4939871;23;20041;-69
2021/10/14 10:25:31;;;;;;;5.47;2.67;;;9.60;94.10;;;;;;4879120;29;20035;-69
2021/10/14 10:27:58;;;;;;;4.10;2.58;;;9.60;94.00;;;;;;4879820;29;20128;-68
2021/10/14 10:30:31;;;;;;;4.97;2.80;;;9.70;94.00;;;;;;4873543;29;20508;-68
2021/10/14 10:32:58;;;;;;;5.93;2.85;;;9.80;94.00;;;;;;4876746;29;20044;-68
2021/10/14 10:35:45;;;;;;;2.50;2.30;;;9.90;93.90;;;;;;4875879;29;20033;-68
2021/10/14 10:38:18;;;;;;;8.98;2.83;;;9.90;93.70;;;;;;4878753;29;20029;-68
2021/10/14 10:40:48;;;;;;;3.20;2.70;;;10.00;93.50;;;;;;4878284;29;20032;-68
2021/10/14 10:43:29;;;;;;;2.83;2.60;;;10.00;93.50;;;;;;4883545;29;20064;-68
2021/10/14 10:46:05;;;;;;;7.32;2.92;;;10.00;93.40;;;;;;4892018;29;20037;-69
2021/10/14 10:48:40;;;;;;;5.20;2.92;;;10.00;93.30;;;;;;4881437;29;20029;-69
2021/10/14 10:51:07;;;;;;;5.05;3.22;;;10.00;93.20;;;;;;4893981;29;20029;-69
2021/10/14 10:53:48;;;;;;;4.18;2.75;;;10.00;93.20;;;;;;4880132;29;20497;-70
2021/10/14 10:56:34;;;;;;;7.00;2.92;;;10.00;93.20;;;;;;4878064;29;20049;-69
2021/10/14 10:59:01;;;;;;;5.05;3.28;;;10.10;93.10;;;;;;4891482;29;20037;-69
2021/10/14 11:01:27;;;;;;;5.38;3.33;;;10.10;93.10;;;;;;4877512;29;20104;-67
2021/10/14 11:03:56;;;;;;;4.00;2.97;;;10.10;93.10;;;;;;4876256;29;20085;-68
2021/10/14 11:06:22;;;;;;;6.68;3.22;;;10.20;93.10;;;;;;4879466;29;20398;-67
2021/10/14 11:08:48;;;;;;;7.25;3.65;;;10.30;93.10;;;;;;4877507;29;20041;-67
2021/10/14 11:11:19;;;;;;;6.28;3.67;;;10.30;93.00;;;;;;4879239;29;20039;-67
2021/10/14 11:13:50;;;;;;;4.45;2.97;;;10.40;93.10;;;;;;4878078;29;20029;-67
2021/10/14 11:16:17;;;;;;;5.47;3.17;;;10.40;92.90;;;;;;4887031;29;20048;-67
2021/10/14 11:18:46;;;;;;;3.65;2.92;;;10.40;92.90;;;;;;4878827;29;20033;-67
2021/10/14 11:21:14;;;;;;;4.93;3.10;;;10.50;92.90;;;;;;4878869;29;20089;-67
2021/10/14 11:23:45;;;;;;;4.32;3.08;;;10.50;92.80;;;;;;4877295;29;20029;-67
2021/10/14 11:26:18;;;;;;;4.47;3.15;;;10.60;92.70;;;;;;4878817;29;20044;-68
2021/10/14 11:29:10;;;;;;;5.85;4.53;;;10.60;92.70;;;;;;4875552;29;20025;-68
2021/10/14 11:31:37;;;;;;;5.30;2.95;;;10.70;92.80;;;;;;4873341;29;20040;-67
2021/10/14 11:34:05;;;;;;;5.38;3.05;;;10.70;92.80;;;;;;4872225;29;20037;-67
2021/10/14 11:36:31;;;;;;;3.95;2.90;;;10.80;92.70;;;;;;4873498;29;20041;-67
2021/10/14 11:38:59;;;;;;;3.78;2.78;;;10.90;92.60;;;;;;4874612;29;20033;-67
2021/10/14 11:41:25;;;;;;;3.55;2.53;;;11.00;92.60;;;;;;4873837;29;20572;-68
2021/10/14 11:43:56;;;;;;;3.05;2.45;;;11.10;92.70;;;;;;4873695;29;20120;-67
2021/10/14 11:46:28;;;;;;;5.68;3.45;;;11.10;92.60;;;;;;4868068;29;20096;-67
2021/10/14 11:49:05;;;;;;;6.13;3.08;;;11.20;92.60;;;;;;4878566;29;20107;-67
2021/10/14 11:51:32;;;;;;;6.10;3.53;;;11.30;92.40;;;;;;4875292;29;20112;-68
2021/10/14 11:54:12;;;;;;;4.32;3.05;;;11.30;92.40;;;;;;4878188;29;20560;-67
2021/10/14 11:56:52;;;;;;;2.35;2.05;;;11.30;92.30;;;;;;4874054;29;20070;-68
2021/10/14 11:59:24;;;;;;;5.63;2.30;;;11.40;92.20;;;;;;4874350;29;20053;-67
2021/10/14 12:01:59;;;;;;;5.00;2.40;;;11.40;92.10;;;;;;4874521;29;20029;-67
2021/10/14 12:04:31;;;;;;;4.22;1.92;;;11.50;92.00;;;;;;4879880;29;20027;-68
2021/10/14 12:06:57;;;;;;;6.85;2.00;;;11.50;92.00;;;;;;4875969;29;20112;-67
2021/10/14 12:09:24;;;;;;;6.18;2.40;;;11.60;92.00;;;;;;4866207;29;20101;-67
2021/10/14 12:11:59;;;;;;;4.13;1.80;;;11.70;91.90;;;;;;4871129;29;20034;-67
2021/10/14 12:14:27;;;;;;;6.55;3.70;;;11.80;91.90;;;;;;4871285;29;20039;-66
2021/10/14 12:17:15;;;;;;;8.23;3.95;;;11.90;91.80;;;;;;4874550;29;20081;-67
2021/10/14 12:19:53;;;;;;;3.40;2.22;;;12.00;91.70;;;;;;4874368;29;20087;-67
2021/10/14 12:22:21;;;;;;;3.95;1.98;;;12.00;91.60;;;;;;4861404;29;20075;-67
2021/10/14 12:25:06;;;;;;;4.80;1.88;;;12.00;91.50;;;;;;4871116;29;20061;-67
2021/10/14 12:27:40;;;;;;;4.93;2.10;;;12.10;91.40;;;;;;4874081;29;20037;-67
2021/10/14 12:30:24;;;;;;;3.90;2.00;;;12.00;91.30;;;;;;4873466;29;20029;-67
2021/10/14 12:32:51;;;;;;;3.33;1.95;;;12.10;91.30;;;;;;4879323;29;20663;-67
2021/10/14 12:35:18;;;;;;;4.97;2.38;;;12.10;91.40;;;;;;4873572;29;20406;-67
2021/10/14 12:37:43;;;;;;;4.15;2.35;;;12.10;91.30;;;;;;4874003;29;20112;-67
2021/10/14 12:40:17;;;;;;;3.97;1.95;;;12.10;91.20;;;;;;4874789;29;20486;-67
2021/10/14 12:43:07;;;;;;;2.85;2.33;;;12.10;91.10;;;;;;4875919;29;20036;-67
2021/10/14 12:53:43;;;;;;;5.50;2.42;;;11.90;90.80;;;;;;4871899;29;20146;-67
2021/10/14 12:56:10;;;;;;;5.38;2.35;;;11.90;90.90;;;;;;4874367;29;20044;-67
2021/10/14 12:58:36;;;;;;;5.35;3.15;;;11.90;90.90;;;;;;4883678;29;20067;-67
2021/10/14 13:01:05;;;;;;;3.92;2.47;;;12.00;90.80;;;;;;4870940;29;20065;-68